PAHL

Details ICAO PAHL (HSL)
Name HUSLIA
Region USA (Alaska)
Timezone America/Anchorage (UTC-8.0)
Plans Departing 0
Arriving 1
Stats Elevation 213 ft / 65 m (AMSL)
Location 65.697854° -156.351432°
Runways 1
Magnetic Variation 14.128° E
Sunrise 2018-05-22 12:24:36 UTC / 2018-05-22 04:24:36 Local
Sunset 2018-05-23 08:22:28 UTC / 2018-05-23 00:22:28 Local
Advertisement - Login to hide

Runways

ID Width Length Bearing (true) Bearing (mag) Surface Threshold Offset Overrun Length
03 75 ft / 23 m 3,987 ft / 1,215 m 51.12° 36.99° Gravel 0 ft / 0 m 0 ft / 0 m
21 75 ft / 23 m 3,987 ft / 1,215 m 231.13° 217.00° Gravel 0 ft / 0 m 0 ft / 0 m

Map

Weather


0- 5 10 15 20 25 30 35+ Temperature / ° C

Clouds and Precipitation
Forecast for 2018-05-22 12:00 UTC. Updated 3 hours ago

Ground ~20,000 ft ~40,000 ft Winds

METAR

PAHL 221336Z AUTO 28005KT 5SM -RA BR BKN005 BKN009 OVC018 03/03 A2956 RMK AO2 CIG 005V008 P0001

TAF

Not found

Frequencies

Recorded 135.75 MHz AWOS 3
Unicom 122.80 MHz CTAF
Warning: Do not use this data for real-world aviation or navigation. No guarantee of current accuracy is given.